NOZ173 ENZV-ENBR
Flight info
| Callsign | NOZ173 |
|---|---|
| Flight time | 0h 33m |
| Altitude | 16000 |
| Route | ALUVA |
| Aircraft | B38M/M-SDE1FGHILORVWXY/HB1 |
Departure
| Time | 2026-05-07 09:36 |
|---|---|
| Airport | Stavanger Airport, Sola (ENZV) |
Arrival
| Time | 2026-05-07 10:09 |
|---|---|
| Airport | Bergen Airport, Flesland (ENBR) |
| Time | Latitude | Longitude | Altitude | Speed | Heading |
|---|---|---|---|---|---|
| 2026-05-07 09:14 | 58.88127 | 5.63027 | 28 ft | 0 kts | 315° |
| 2026-05-07 09:20 | 58.88114 | 5.63052 | 27 ft | 3 kts | 315° |
| 2026-05-07 09:20 | 58.88101 | 5.63076 | 27 ft | 2 kts | 315° |
| 2026-05-07 09:21 | 58.88092 | 5.63093 | 28 ft | 0 kts | 315° |
| 2026-05-07 09:32 | 58.88097 | 5.63070 | 27 ft | 6 kts | 281° |
| 2026-05-07 09:32 | 58.88043 | 5.63031 | 29 ft | 13 kts | 138° |
| 2026-05-07 09:32 | 58.88004 | 5.63194 | 31 ft | 14 kts | 110° |
| 2026-05-07 09:33 | 58.87940 | 5.63326 | 33 ft | 14 kts | 161° |
| 2026-05-07 09:33 | 58.87842 | 5.63300 | 34 ft | 17 kts | 190° |
| 2026-05-07 09:33 | 58.87679 | 5.63294 | 34 ft | 30 kts | 179° |
| 2026-05-07 09:33 | 58.87447 | 5.63301 | 33 ft | 35 kts | 179° |
| 2026-05-07 09:34 | 58.87204 | 5.63307 | 34 ft | 34 kts | 179° |
| 2026-05-07 09:34 | 58.87031 | 5.63354 | 35 ft | 22 kts | 142° |
| 2026-05-07 09:34 | 58.87019 | 5.63592 | 37 ft | 19 kts | 65° |
| 2026-05-07 09:34 | 58.87081 | 5.63785 | 37 ft | 14 kts | 32° |
| 2026-05-07 09:35 | 58.87122 | 5.63799 | 37 ft | 1 kts | 358° |
| 2026-05-07 09:35 | 58.87332 | 5.63793 | 36 ft | 72 kts | 359° |
| 2026-05-07 09:35 | 58.88098 | 5.63773 | 34 ft | 146 kts | 359° |
| 2026-05-07 09:35 | 58.89276 | 5.63750 | 341 ft | 185 kts | 359° |
| 2026-05-07 09:36 | 58.90598 | 5.63735 | 1286 ft | 195 kts | 359° |
| 2026-05-07 09:36 | 58.92041 | 5.63674 | 2030 ft | 220 kts | 359° |
| 2026-05-07 09:36 | 58.93638 | 5.63582 | 2896 ft | 234 kts | 356° |
| 2026-05-07 09:36 | 58.95252 | 5.62640 | 3769 ft | 254 kts | 330° |
| 2026-05-07 09:37 | 58.96700 | 5.60525 | 4733 ft | 263 kts | 321° |
| 2026-05-07 09:37 | 58.98126 | 5.58342 | 5881 ft | 267 kts | 321° |
| 2026-05-07 09:37 | 58.99603 | 5.56119 | 6966 ft | 270 kts | 321° |
| 2026-05-07 09:37 | 59.01099 | 5.53882 | 7983 ft | 273 kts | 321° |
| 2026-05-07 09:38 | 59.02620 | 5.51620 | 8990 ft | 277 kts | 321° |
| 2026-05-07 09:38 | 59.04162 | 5.49334 | 9978 ft | 281 kts | 321° |
| 2026-05-07 09:38 | 59.05743 | 5.46990 | 10715 ft | 293 kts | 321° |
| 2026-05-07 09:38 | 59.07444 | 5.44476 | 11181 ft | 313 kts | 321° |
| 2026-05-07 09:39 | 59.09236 | 5.41828 | 11583 ft | 334 kts | 321° |
| 2026-05-07 09:39 | 59.11141 | 5.39009 | 11920 ft | 354 kts | 321° |
| 2026-05-07 09:39 | 59.13121 | 5.36071 | 12253 ft | 371 kts | 321° |
| 2026-05-07 09:39 | 59.15201 | 5.32977 | 12761 ft | 381 kts | 320° |
| 2026-05-07 09:40 | 59.17302 | 5.29838 | 13608 ft | 382 kts | 320° |
| 2026-05-07 09:40 | 59.19419 | 5.26668 | 14287 ft | 385 kts | 320° |
| 2026-05-07 09:40 | 59.21550 | 5.23472 | 14977 ft | 388 kts | 320° |
| 2026-05-07 09:40 | 59.23697 | 5.20245 | 15649 ft | 390 kts | 320° |
| 2026-05-07 09:41 | 59.25866 | 5.16981 | 16002 ft | 394 kts | 319° |
| 2026-05-07 09:41 | 59.28051 | 5.13688 | 16094 ft | 399 kts | 319° |
| 2026-05-07 09:41 | 59.30249 | 5.10367 | 16099 ft | 400 kts | 319° |
| 2026-05-07 09:41 | 59.32455 | 5.07029 | 16101 ft | 400 kts | 319° |
| 2026-05-07 09:42 | 59.34653 | 5.03697 | 16102 ft | 400 kts | 319° |
| 2026-05-07 09:42 | 59.36856 | 5.00366 | 16102 ft | 400 kts | 321° |
| 2026-05-07 09:42 | 59.39327 | 4.97798 | 16092 ft | 406 kts | 338° |
| 2026-05-07 09:42 | 59.42115 | 4.96681 | 16113 ft | 412 kts | 350° |
| 2026-05-07 09:43 | 59.44975 | 4.96106 | 16108 ft | 413 kts | 351° |
| 2026-05-07 09:43 | 59.47840 | 4.95575 | 16108 ft | 413 kts | 351° |
| 2026-05-07 09:43 | 59.50706 | 4.95076 | 16109 ft | 413 kts | 352° |
| 2026-05-07 09:43 | 59.53571 | 4.94596 | 16121 ft | 413 kts | 352° |
| 2026-05-07 09:44 | 59.56398 | 4.94129 | 16118 ft | 413 kts | 352° |
| 2026-05-07 09:44 | 59.59264 | 4.93658 | 16115 ft | 413 kts | 352° |
| 2026-05-07 09:44 | 59.62130 | 4.93187 | 16117 ft | 413 kts | 352° |
| 2026-05-07 09:44 | 59.65030 | 4.92710 | 16116 ft | 413 kts | 352° |
| 2026-05-07 09:45 | 59.67861 | 4.92243 | 16119 ft | 413 kts | 352° |
| 2026-05-07 09:45 | 59.70731 | 4.91769 | 16123 ft | 413 kts | 352° |
| 2026-05-07 09:45 | 59.73601 | 4.91295 | 16117 ft | 413 kts | 352° |
| 2026-05-07 09:45 | 59.76467 | 4.90820 | 16120 ft | 413 kts | 352° |
| 2026-05-07 09:46 | 59.79297 | 4.90110 | 16140 ft | 408 kts | 348° |
| 2026-05-07 09:46 | 59.82093 | 4.89337 | 16156 ft | 400 kts | 352° |
| 2026-05-07 09:46 | 59.84832 | 4.89457 | 16061 ft | 389 kts | 2° |
| 2026-05-07 09:46 | 59.87517 | 4.90032 | 15582 ft | 385 kts | 3° |
| 2026-05-07 09:47 | 59.90171 | 4.90571 | 15109 ft | 382 kts | 3° |
| 2026-05-07 09:47 | 59.92816 | 4.91087 | 14597 ft | 381 kts | 3° |
| 2026-05-07 09:47 | 59.95448 | 4.91591 | 14097 ft | 379 kts | 3° |
| 2026-05-07 09:47 | 59.98071 | 4.92089 | 13557 ft | 378 kts | 3° |
| 2026-05-07 09:48 | 60.00662 | 4.92580 | 13005 ft | 376 kts | 3° |
| 2026-05-07 09:48 | 60.03267 | 4.93074 | 12459 ft | 375 kts | 4° |
| 2026-05-07 09:48 | 60.05859 | 4.93567 | 11926 ft | 373 kts | 4° |
| 2026-05-07 09:48 | 60.08432 | 4.94057 | 11410 ft | 370 kts | 4° |
| 2026-05-07 09:49 | 60.10960 | 4.94539 | 10935 ft | 359 kts | 4° |
| 2026-05-07 09:49 | 60.13408 | 4.95008 | 10515 ft | 348 kts | 4° |
| 2026-05-07 09:49 | 60.15779 | 4.95462 | 10093 ft | 338 kts | 4° |
| 2026-05-07 09:49 | 60.18090 | 4.95905 | 9638 ft | 329 kts | 4° |
| 2026-05-07 09:50 | 60.20340 | 4.96337 | 9175 ft | 321 kts | 4° |
| 2026-05-07 09:50 | 60.22538 | 4.96759 | 8718 ft | 314 kts | 4° |
| 2026-05-07 09:50 | 60.23506 | 4.96945 | 8516 ft | 311 kts | 4° |
| 2026-05-07 10:00 | 60.24314 | 4.97100 | 8344 ft | 309 kts | 4° |
| 2026-05-07 10:01 | 60.26449 | 4.97511 | 7905 ft | 308 kts | 4° |
| 2026-05-07 10:01 | 60.28578 | 4.97921 | 7463 ft | 306 kts | 4° |
| 2026-05-07 10:01 | 60.30716 | 4.98338 | 7009 ft | 308 kts | 4° |
| 2026-05-07 10:01 | 60.32820 | 4.98742 | 6586 ft | 300 kts | 5° |
| 2026-05-07 10:02 | 60.34871 | 4.99136 | 6122 ft | 292 kts | 5° |
| 2026-05-07 10:02 | 60.36871 | 4.99525 | 5705 ft | 285 kts | 5° |
| 2026-05-07 10:02 | 60.38811 | 4.99903 | 5388 ft | 274 kts | 5° |
| 2026-05-07 10:02 | 60.40675 | 5.00263 | 5097 ft | 264 kts | 5° |
| 2026-05-07 10:03 | 60.42472 | 5.00603 | 4834 ft | 254 kts | 5° |
| 2026-05-07 10:03 | 60.44193 | 5.00925 | 4593 ft | 243 kts | 5° |
| 2026-05-07 10:03 | 60.45752 | 5.01794 | 4343 ft | 231 kts | 33° |
| 2026-05-07 10:03 | 60.46800 | 5.04059 | 4307 ft | 214 kts | 61° |
| 2026-05-07 10:04 | 60.47386 | 5.06737 | 4261 ft | 203 kts | 78° |
| 2026-05-07 10:04 | 60.47450 | 5.09498 | 4294 ft | 192 kts | 101° |
| 2026-05-07 10:04 | 60.46997 | 5.11987 | 4364 ft | 190 kts | 127° |
| 2026-05-07 10:04 | 60.46105 | 5.13958 | 4284 ft | 190 kts | 140° |
| 2026-05-07 10:05 | 60.44925 | 5.15222 | 3850 ft | 198 kts | 163° |
| 2026-05-07 10:05 | 60.43580 | 5.16100 | 3362 ft | 205 kts | 162° |
| 2026-05-07 10:05 | 60.42303 | 5.17023 | 3097 ft | 186 kts | 159° |
| 2026-05-07 10:05 | 60.41133 | 5.17775 | 2813 ft | 166 kts | 167° |
| 2026-05-07 10:06 | 60.40052 | 5.18209 | 2564 ft | 152 kts | 170° |
| 2026-05-07 10:06 | 60.39045 | 5.18559 | 2272 ft | 141 kts | 172° |
| 2026-05-07 10:06 | 60.38041 | 5.18885 | 2069 ft | 153 kts | 171° |
| 2026-05-07 10:06 | 60.37014 | 5.19233 | 1819 ft | 147 kts | 170° |
| 2026-05-07 10:07 | 60.36021 | 5.19569 | 1561 ft | 142 kts | 171° |
| 2026-05-07 10:07 | 60.35081 | 5.19881 | 1318 ft | 133 kts | 171° |
| 2026-05-07 10:07 | 60.34137 | 5.20176 | 1077 ft | 145 kts | 172° |
| 2026-05-07 10:07 | 60.33140 | 5.20536 | 898 ft | 146 kts | 169° |
| 2026-05-07 10:08 | 60.32168 | 5.20876 | 592 ft | 141 kts | 172° |
| 2026-05-07 10:08 | 60.31220 | 5.21204 | 350 ft | 136 kts | 172° |
| 2026-05-07 10:08 | 60.30300 | 5.21508 | 198 ft | 133 kts | 172° |
| 2026-05-07 10:08 | 60.29484 | 5.21775 | 174 ft | 95 kts | 170° |
| 2026-05-07 10:09 | 60.29039 | 5.21922 | 177 ft | 48 kts | 170° |
| 2026-05-07 10:09 | 60.28751 | 5.22012 | 177 ft | 26 kts | 170° |
| 2026-05-07 10:09 | 60.28666 | 5.22121 | 177 ft | 12 kts | 100° |
| 2026-05-07 10:09 | 60.28675 | 5.22308 | 177 ft | 16 kts | 86° |
| 2026-05-07 10:10 | 60.28673 | 5.22583 | 176 ft | 17 kts | 81° |
| 2026-05-07 10:10 | 60.28694 | 5.22873 | 176 ft | 19 kts | 83° |
| 2026-05-07 10:10 | 60.28695 | 5.22893 | 176 ft | 0 kts | 82° |